createdAt,value
2019-03-19T00:02:27.648Z,1.00
2019-03-19T00:05:50.897Z,1.00
2019-03-19T00:09:15.337Z,1.00
2019-03-19T00:12:38.503Z,0.90
2019-03-19T00:16:01.661Z,0.90
2019-03-19T00:19:24.858Z,0.80
2019-03-19T00:22:47.965Z,0.90
2019-03-19T00:26:14.118Z,0.90
2019-03-19T00:29:38.362Z,0.90
2019-03-19T00:33:02.561Z,0.90
2019-03-19T00:36:25.691Z,0.90
2019-03-19T00:39:48.820Z,0.80
2019-03-19T00:43:12.375Z,0.70
2019-03-19T00:46:35.469Z,0.70
2019-03-19T00:49:58.613Z,0.70
2019-03-19T00:53:21.703Z,0.70
2019-03-19T00:56:44.778Z,0.60
2019-03-19T01:00:10.431Z,0.60
2019-03-19T01:03:33.512Z,0.50
2019-03-19T01:06:56.706Z,0.50
2019-03-19T01:10:19.985Z,0.40
2019-03-19T01:13:43.143Z,0.50
2019-03-19T01:17:06.447Z,0.40
2019-03-19T01:20:29.554Z,0.40
2019-03-19T01:23:52.796Z,0.40
2019-03-19T01:27:18.016Z,0.40
2019-03-19T01:30:41.119Z,0.40
2019-03-19T01:34:04.205Z,0.50
2019-03-19T01:37:27.320Z,0.40
2019-03-19T01:40:50.600Z,0.50
2019-03-19T01:44:14.059Z,0.40
2019-03-19T01:47:37.207Z,0.40
2019-03-19T01:51:00.346Z,0.50
2019-03-19T01:54:23.424Z,0.50
2019-03-19T01:57:46.602Z,0.40
2019-03-19T02:01:09.852Z,0.40
2019-03-19T02:04:33.035Z,0.40
2019-03-19T02:07:56.249Z,0.40
2019-03-19T02:11:19.350Z,0.30
2019-03-19T02:14:42.651Z,0.20
2019-03-19T02:18:05.784Z,0.10
2019-03-19T02:21:29.207Z,0.10
2019-03-19T02:24:52.631Z,0.10
2019-03-19T02:28:15.881Z,0.10
2019-03-19T02:31:38.986Z,0.10
2019-03-19T02:35:02.140Z,0.00
2019-03-19T02:38:25.443Z,0.00
2019-03-19T02:41:48.783Z,0.00
2019-03-19T02:45:12.133Z,0.00
2019-03-19T02:48:35.675Z,0.00
2019-03-19T02:51:58.905Z,0.00
2019-03-19T02:55:22.342Z,0.00
2019-03-19T02:58:45.448Z,-0.10
2019-03-19T03:02:08.604Z,-0.10
2019-03-19T03:05:31.814Z,0.00
2019-03-19T03:08:54.924Z,0.00
2019-03-19T03:12:18.046Z,-0.10
2019-03-19T03:15:41.173Z,-0.20
2019-03-19T03:19:04.443Z,-0.30
2019-03-19T03:22:27.642Z,-0.30
2019-03-19T03:25:50.793Z,-0.30
2019-03-19T03:29:13.884Z,-0.30
2019-03-19T03:32:37.030Z,-0.30
2019-03-19T03:36:00.122Z,-0.30
2019-03-19T03:39:23.252Z,-0.30
2019-03-19T03:42:46.386Z,-0.30
2019-03-19T03:46:09.477Z,-0.40
2019-03-19T03:49:32.967Z,-0.40
2019-03-19T03:52:56.055Z,-0.40
2019-03-19T03:56:19.148Z,-0.40
2019-03-19T03:59:42.346Z,-0.50
2019-03-19T04:03:05.470Z,-0.50
2019-03-19T04:06:28.651Z,-0.50
2019-03-19T04:09:52.957Z,-0.50
2019-03-19T04:13:16.121Z,-0.40
2019-03-19T04:16:39.303Z,-0.40
2019-03-19T04:20:02.580Z,-0.40
2019-03-19T04:23:25.674Z,-0.40
2019-03-19T04:26:48.957Z,-0.40
2019-03-19T04:30:12.285Z,-0.50
2019-03-19T04:33:35.411Z,-0.50
2019-03-19T04:36:58.527Z,-0.50
2019-03-19T04:40:21.732Z,-0.60
2019-03-19T04:43:44.805Z,-0.60
2019-03-19T04:47:08.248Z,-0.70
2019-03-19T04:50:31.364Z,-0.70
2019-03-19T04:53:54.943Z,-0.70
2019-03-19T04:57:26.309Z,-0.60
2019-03-19T05:00:43.616Z,-0.50
2019-03-19T05:04:06.931Z,-0.60
2019-03-19T05:07:30.030Z,-0.60
2019-03-19T05:10:53.536Z,-0.60
2019-03-19T05:14:16.738Z,-0.60
2019-03-19T05:17:39.993Z,-0.60
2019-03-19T05:21:03.143Z,-0.60
2019-03-19T05:24:27.243Z,-0.50
2019-03-19T05:27:50.357Z,-0.50
2019-03-19T05:31:13.499Z,-0.40
2019-03-19T05:34:36.924Z,-0.40
2019-03-19T05:38:00.393Z,-0.40
2019-03-19T05:41:23.475Z,-0.40
2019-03-19T05:44:46.745Z,-0.50
2019-03-19T05:48:09.840Z,-0.40
2019-03-19T05:51:32.995Z,-0.40
2019-03-19T05:54:56.326Z,-0.30
2019-03-19T05:58:22.500Z,-0.30
2019-03-19T06:01:45.668Z,-0.30
2019-03-19T06:05:10.363Z,-0.30
2019-03-19T06:08:33.795Z,-0.20
2019-03-19T06:11:59.887Z,-0.20
2019-03-19T06:15:23.006Z,0.00
2019-03-19T06:18:46.193Z,0.10
2019-03-19T06:22:09.316Z,0.30
2019-03-19T06:25:33.482Z,0.30
2019-03-19T06:28:56.579Z,0.50
2019-03-19T06:32:19.886Z,0.50
2019-03-19T06:35:43.146Z,0.70
2019-03-19T06:39:07.434Z,0.70
2019-03-19T06:42:30.751Z,0.70
2019-03-19T06:45:53.974Z,0.70
2019-03-19T06:49:17.131Z,0.80
2019-03-19T06:52:40.629Z,0.90
2019-03-19T06:56:04.040Z,0.90
2019-03-19T06:59:27.296Z,1.00
2019-03-19T07:02:50.662Z,1.00
2019-03-19T07:06:14.830Z,1.00
2019-03-19T07:09:38.019Z,1.10
2019-03-19T07:13:01.253Z,1.10
2019-03-19T07:16:24.407Z,1.20
2019-03-19T07:19:47.519Z,1.30
2019-03-19T07:23:10.691Z,1.50
2019-03-19T07:26:34.027Z,1.60
2019-03-19T07:29:58.220Z,1.80
2019-03-19T07:33:21.349Z,1.90
2019-03-19T07:36:44.485Z,2.00
2019-03-19T07:40:09.367Z,2.10
2019-03-19T07:43:32.600Z,2.30
2019-03-19T07:46:56.054Z,2.30
2019-03-19T07:50:19.590Z,2.40
2019-03-19T07:53:42.810Z,2.50
2019-03-19T07:57:05.980Z,2.60
2019-03-19T08:00:29.167Z,2.70
2019-03-19T08:03:52.286Z,2.90
2019-03-19T08:07:16.037Z,3.00
2019-03-19T08:10:39.174Z,3.10
2019-03-19T08:14:02.335Z,3.20
2019-03-19T08:17:26.460Z,3.30
2019-03-19T08:20:49.609Z,3.50
2019-03-19T08:24:12.736Z,3.60
2019-03-19T08:27:35.916Z,3.80
2019-03-19T08:30:59.263Z,3.90
2019-03-19T08:34:22.646Z,4.10
2019-03-19T08:37:45.901Z,4.20
2019-03-19T08:41:09.163Z,4.40
2019-03-19T08:44:32.643Z,4.50
2019-03-19T08:47:55.784Z,4.70
2019-03-19T08:51:19.421Z,4.90
2019-03-19T08:54:42.729Z,5.10
2019-03-19T08:58:05.928Z,5.20
2019-03-19T09:01:29.227Z,5.30
2019-03-19T09:04:52.475Z,5.30
2019-03-19T09:08:15.590Z,5.50
2019-03-19T09:11:38.764Z,5.60
2019-03-19T09:15:02.004Z,5.80
2019-03-19T09:18:25.328Z,5.90
2019-03-19T09:21:49.149Z,6.00
2019-03-19T09:25:12.849Z,6.20
2019-03-19T09:28:36.056Z,6.50
2019-03-19T09:31:59.182Z,6.70
2019-03-19T09:35:22.467Z,7.00
2019-03-19T09:38:45.578Z,7.30
2019-03-19T09:42:08.746Z,7.40
2019-03-19T09:45:31.915Z,7.60
2019-03-19T09:48:56.069Z,8.10
2019-03-19T09:52:19.324Z,10.20
2019-03-19T09:55:42.893Z,12.50
2019-03-19T09:59:06.043Z,14.20
2019-03-19T10:02:29.174Z,15.50
2019-03-19T10:05:52.793Z,16.40
2019-03-19T10:09:15.989Z,17.20
2019-03-19T10:12:39.141Z,18.10
2019-03-19T10:16:02.278Z,19.10
2019-03-19T10:19:25.474Z,20.00
2019-03-19T10:22:48.735Z,20.40
2019-03-19T10:26:12.301Z,20.10
2019-03-19T10:29:38.628Z,19.40
2019-03-19T10:33:00.936Z,18.10
2019-03-19T10:36:24.521Z,17.30
2019-03-19T10:39:47.681Z,17.20
2019-03-19T10:43:10.926Z,17.10
2019-03-19T10:46:35.176Z,16.90
2019-03-19T10:49:58.632Z,16.20
2019-03-19T10:53:21.868Z,15.70
2019-03-19T10:56:45.074Z,15.20
2019-03-19T11:00:16.966Z,15.20
2019-03-19T11:03:40.334Z,15.50
2019-03-19T11:07:03.471Z,16.30
2019-03-19T11:10:26.676Z,17.60
2019-03-19T11:13:49.885Z,18.90
2019-03-19T11:17:13.164Z,20.00
2019-03-19T11:20:36.408Z,21.10
2019-03-19T11:23:59.554Z,22.20
2019-03-19T11:27:22.661Z,23.30
2019-03-19T11:30:45.947Z,23.10
2019-03-19T11:34:09.194Z,23.30
2019-03-19T11:37:32.555Z,23.90
2019-03-19T11:40:56.082Z,24.70
2019-03-19T11:44:19.465Z,25.00
2019-03-19T11:47:42.958Z,25.10
2019-03-19T11:51:06.146Z,25.50
2019-03-19T11:54:32.351Z,25.10
2019-03-19T11:57:58.877Z,24.70
2019-03-19T12:01:22.505Z,26.10
2019-03-19T12:04:46.074Z,27.30
2019-03-19T12:08:09.981Z,27.40
2019-03-19T12:11:33.187Z,27.20
2019-03-19T12:14:56.587Z,28.10
2019-03-19T12:18:20.101Z,28.60
2019-03-19T12:21:43.849Z,28.80
2019-03-19T12:25:09.643Z,29.40
2019-03-19T12:28:39.533Z,29.60
2019-03-19T12:32:01.535Z,30.30
2019-03-19T12:35:24.779Z,29.20
2019-03-19T12:38:47.946Z,29.50
2019-03-19T12:42:11.073Z,30.10
2019-03-19T12:45:34.361Z,31.10
2019-03-19T12:48:57.658Z,31.90
2019-03-19T12:52:20.950Z,31.40
2019-03-19T12:55:44.243Z,30.40
2019-03-19T12:59:07.524Z,30.40
2019-03-19T13:02:30.772Z,30.90
2019-03-19T13:05:54.057Z,31.00
2019-03-19T13:09:17.554Z,29.50
2019-03-19T13:12:40.736Z,27.40
2019-03-19T13:16:04.123Z,26.40
2019-03-19T13:19:27.296Z,25.10
2019-03-19T13:22:50.477Z,23.10
2019-03-19T13:26:13.592Z,21.80
2019-03-19T13:29:36.947Z,20.90
2019-03-19T13:33:00.413Z,19.60
2019-03-19T13:36:24.302Z,18.30
2019-03-19T13:39:47.802Z,18.10
2019-03-19T13:43:13.737Z,17.60
2019-03-19T13:46:41.855Z,17.00
2019-03-19T13:50:06.059Z,16.60
2019-03-19T13:53:29.137Z,16.50
2019-03-19T13:56:52.404Z,16.50
2019-03-19T14:00:55.657Z,16.50
2019-03-19T14:04:16.039Z,16.30
2019-03-19T14:07:39.582Z,16.00
2019-03-19T14:11:03.864Z,16.00
2019-03-19T14:14:27.328Z,15.90
2019-03-19T14:17:50.745Z,15.70
2019-03-19T14:21:13.864Z,15.60
2019-03-19T14:24:37.062Z,15.80
2019-03-19T14:28:00.219Z,15.90
2019-03-19T14:31:23.372Z,15.80
2019-03-19T14:34:46.540Z,15.70
2019-03-19T14:38:10.062Z,15.80
2019-03-19T14:41:33.353Z,16.10
2019-03-19T14:44:56.571Z,18.20
2019-03-19T14:48:19.830Z,21.30
2019-03-19T14:51:42.943Z,25.60
2019-03-19T14:55:06.260Z,28.50
2019-03-19T14:58:29.396Z,30.10
2019-03-19T15:01:52.811Z,30.90
2019-03-19T15:05:16.351Z,32.10
2019-03-19T15:08:39.888Z,33.00
2019-03-19T15:12:03.129Z,30.50
2019-03-19T15:15:26.381Z,27.20
2019-03-19T15:18:49.477Z,24.00
2019-03-19T15:22:12.719Z,20.70
2019-03-19T15:25:36.044Z,18.10
2019-03-19T15:28:59.340Z,16.80
2019-03-19T15:32:22.567Z,15.60
2019-03-19T15:35:45.746Z,14.50
2019-03-19T15:39:08.891Z,14.20
2019-03-19T15:42:32.077Z,13.80
2019-03-19T15:45:55.439Z,13.40
2019-03-19T15:49:18.784Z,13.20
2019-03-19T15:52:42.166Z,12.90
2019-03-19T15:56:05.559Z,12.80
2019-03-19T15:59:28.798Z,12.60
2019-03-19T16:02:52.225Z,12.60
2019-03-19T16:06:15.719Z,12.60
2019-03-19T16:09:39.061Z,12.50
2019-03-19T16:13:02.272Z,12.30
2019-03-19T16:16:25.572Z,12.30
2019-03-19T16:19:50.048Z,12.30
2019-03-19T16:23:14.273Z,12.30
2019-03-19T16:26:37.795Z,12.40
2019-03-19T16:30:00.909Z,12.50
2019-03-19T16:33:24.182Z,12.50
2019-03-19T16:36:47.438Z,12.50
2019-03-19T16:40:16.068Z,12.40
2019-03-19T16:43:39.438Z,12.10
2019-03-19T16:47:02.927Z,11.90
2019-03-19T16:50:26.275Z,11.50
2019-03-19T16:53:49.665Z,11.30
2019-03-19T16:57:12.966Z,11.10
2019-03-19T17:00:36.175Z,10.90
2019-03-19T17:03:59.511Z,10.60
2019-03-19T17:07:22.644Z,10.30
2019-03-19T17:12:14.396Z,10.20
2019-03-19T17:16:06.107Z,10.00
2019-03-19T17:19:29.302Z,9.90
2019-03-19T17:22:52.451Z,9.70
2019-03-19T17:26:16.571Z,9.50
2019-03-19T17:29:39.679Z,9.30
2019-03-19T17:33:07.854Z,9.20
2019-03-19T17:36:36.843Z,9.00
2019-03-19T17:40:09.423Z,8.90
2019-03-19T17:43:33.587Z,8.70
2019-03-19T17:46:57.995Z,8.60
2019-03-19T17:50:21.420Z,8.50
2019-03-19T17:53:45.052Z,8.40
2019-03-19T17:57:08.305Z,8.40
2019-03-19T18:00:31.929Z,8.20
2019-03-19T18:03:55.137Z,8.10
2019-03-19T18:07:18.309Z,7.90
2019-03-19T18:10:42.505Z,7.80
2019-03-19T18:14:05.762Z,7.70
2019-03-19T18:17:29.011Z,7.50
2019-03-19T18:20:52.313Z,7.50
2019-03-19T18:24:15.429Z,7.50
2019-03-19T18:27:38.667Z,7.40
2019-03-19T18:31:01.801Z,7.50
2019-03-19T18:34:25.107Z,7.40
2019-03-19T18:37:48.390Z,7.30
2019-03-19T18:41:12.022Z,7.20
2019-03-19T18:44:35.188Z,7.10
2019-03-19T18:47:58.291Z,7.00
2019-03-19T18:51:21.410Z,6.90
2019-03-19T18:54:44.691Z,6.70
2019-03-19T18:58:07.864Z,6.60
2019-03-19T19:01:31.054Z,6.50
2019-03-19T19:04:54.477Z,6.40
2019-03-19T19:08:17.764Z,6.30
2019-03-19T19:11:41.021Z,6.20
2019-03-19T19:15:05.673Z,6.10
2019-03-19T19:18:28.838Z,6.10
2019-03-19T19:21:52.305Z,6.10
2019-03-19T19:25:18.115Z,6.00
2019-03-19T19:28:42.559Z,5.90
2019-03-19T19:32:05.701Z,5.90
2019-03-19T19:35:28.839Z,5.80
2019-03-19T19:38:52.334Z,5.80
2019-03-19T19:42:15.953Z,5.80
2019-03-19T19:45:39.788Z,5.70
2019-03-19T19:49:03.012Z,5.70
2019-03-19T19:52:26.360Z,5.60
2019-03-19T19:55:49.686Z,5.60
2019-03-19T19:59:13.010Z,5.60
2019-03-19T20:02:36.263Z,5.50
2019-03-19T20:05:59.690Z,5.50
2019-03-19T20:09:23.087Z,5.40
2019-03-19T20:12:46.551Z,5.40
2019-03-19T20:16:10.016Z,5.30
2019-03-19T20:19:33.234Z,5.30
2019-03-19T20:22:56.555Z,5.30
2019-03-19T20:26:19.747Z,5.30
2019-03-19T20:29:43.274Z,5.30
2019-03-19T20:33:06.506Z,5.20
2019-03-19T20:36:29.774Z,5.20
2019-03-19T20:39:54.758Z,5.20
2019-03-19T20:43:18.233Z,5.20
2019-03-19T20:46:44.057Z,5.20
2019-03-19T20:50:17.948Z,5.10
2019-03-19T20:53:41.351Z,5.10
2019-03-19T20:57:05.245Z,5.10
2019-03-19T21:00:31.812Z,5.10
2019-03-19T21:03:55.125Z,5.10
2019-03-19T21:07:18.257Z,5.20
2019-03-19T21:10:41.633Z,5.20
2019-03-19T21:14:05.109Z,5.20
2019-03-19T21:17:28.418Z,5.10
2019-03-19T21:20:51.695Z,5.00
2019-03-19T21:24:15.038Z,4.90
2019-03-19T21:27:41.744Z,4.80
2019-03-19T21:31:08.437Z,4.80
2019-03-19T21:34:32.047Z,4.60
2019-03-19T21:37:55.185Z,4.60
2019-03-19T21:41:18.503Z,4.50
2019-03-19T21:44:41.731Z,4.50
2019-03-19T21:48:04.815Z,4.50
2019-03-19T21:51:28.337Z,4.60
2019-03-19T21:54:51.440Z,4.80
2019-03-19T21:58:14.540Z,4.80
2019-03-19T22:01:37.855Z,4.80
2019-03-19T22:05:01.181Z,4.90
2019-03-19T22:08:24.406Z,4.90
2019-03-19T22:11:47.650Z,4.90
2019-03-19T22:15:14.302Z,4.80
2019-03-19T22:18:37.826Z,4.70
2019-03-19T22:22:00.943Z,4.60
2019-03-19T22:25:24.397Z,4.60
2019-03-19T22:28:47.777Z,4.70
2019-03-19T22:32:10.981Z,4.80
2019-03-19T22:35:34.202Z,4.80
2019-03-19T22:38:57.381Z,4.70
2019-03-19T22:42:20.664Z,4.60
2019-03-19T22:45:43.825Z,4.50
2019-03-19T22:49:07.307Z,4.40
2019-03-19T22:52:30.519Z,4.30
2019-03-19T22:55:53.752Z,4.30
2019-03-19T22:59:17.000Z,4.20
2019-03-19T23:02:40.213Z,4.20
2019-03-19T23:06:03.467Z,4.30
2019-03-19T23:09:26.697Z,4.30
2019-03-19T23:12:49.985Z,4.40
2019-03-19T23:16:13.253Z,4.40
2019-03-19T23:19:36.663Z,4.50
2019-03-19T23:22:59.812Z,4.50
2019-03-19T23:26:22.988Z,4.50
2019-03-19T23:29:46.193Z,4.50
2019-03-19T23:33:09.394Z,4.40
2019-03-19T23:36:35.568Z,4.30
2019-03-19T23:39:59.182Z,4.20
2019-03-19T23:43:22.454Z,4.10
2019-03-19T23:46:45.701Z,4.10
2019-03-19T23:50:10.158Z,4.20
2019-03-19T23:53:34.616Z,4.30
2019-03-19T23:56:57.999Z,4.30
